Time;durP1;ratioP1;P1;durP2;ratioP2;P2;SDS_P1;SDS_P2;PMS_P1;PMS_P2;Temp;Humidity;BMP_temperature;BMP_pressure;BME280_temperature;BME280_humidity;BME280_pressure;Samples;Min_cycle;Max_cycle;Signal;HPM_P1;HPM_P2
2022/07/23 00:00:17;;;;;;;42.92;36.75;;;29.40;48.00;;;;;;6183801;23;20011;-65
2022/07/23 00:02:43;;;;;;;50.88;36.55;;;29.40;47.70;;;;;;6184257;23;20001;-65
2022/07/23 00:05:09;;;;;;;45.13;36.08;;;29.40;47.50;;;;;;6183951;23;20016;-64
2022/07/23 00:07:35;;;;;;;41.03;35.65;;;29.30;47.30;;;;;;6184176;23;19997;-64
2022/07/23 00:10:01;;;;;;;49.83;34.70;;;29.30;47.20;;;;;;6183964;23;20005;-66
2022/07/23 00:12:26;;;;;;;45.42;34.22;;;29.20;47.20;;;;;;6183640;23;20032;-65
2022/07/23 00:14:52;;;;;;;41.42;35.70;;;29.10;47.30;;;;;;6182724;23;20016;-65
2022/07/23 00:17:18;;;;;;;44.22;36.67;;;29.10;47.30;;;;;;6184107;23;20004;-63
2022/07/23 00:19:44;;;;;;;42.55;35.20;;;29.00;47.20;;;;;;6184045;23;20004;-64
2022/07/23 00:22:09;;;;;;;46.28;36.97;;;29.00;47.60;;;;;;6183963;23;19997;-64
2022/07/23 00:24:35;;;;;;;47.05;36.97;;;29.00;47.80;;;;;;6184373;23;20045;-64
2022/07/23 00:27:01;;;;;;;46.13;36.58;;;28.90;47.90;;;;;;6184763;23;20305;-65
2022/07/23 00:29:27;;;;;;;53.80;36.60;;;28.90;48.00;;;;;;6184403;23;20008;-65
2022/07/23 00:31:52;;;;;;;53.67;35.92;;;28.90;48.00;;;;;;6184153;23;20001;-64
2022/07/23 00:34:18;;;;;;;43.65;36.75;;;28.80;48.00;;;;;;6184130;23;20397;-65
2022/07/23 00:36:44;;;;;;;48.00;37.15;;;28.80;48.10;;;;;;6184040;23;20384;-65
2022/07/23 00:39:09;;;;;;;48.97;37.05;;;28.80;48.80;;;;;;6184184;23;20001;-64
2022/07/23 00:41:35;;;;;;;52.53;38.55;;;28.80;48.10;;;;;;6184226;23;20009;-63
2022/07/23 00:44:24;;;;;;;46.47;39.95;;;28.80;48.30;;;;;;6183451;23;20015;-65
2022/07/23 00:46:55;;;;;;;49.83;40.50;;;28.80;48.20;;;;;;6183287;23;20001;-65
2022/07/23 00:49:23;;;;;;;47.28;40.08;;;28.80;48.30;;;;;;6183990;23;20084;-64
2022/07/23 00:51:49;;;;;;;48.85;40.25;;;28.70;48.60;;;;;;6184080;23;20043;-63
2022/07/23 00:54:17;;;;;;;52.38;41.08;;;28.70;48.60;;;;;;6184212;23;20142;-65
2022/07/23 00:56:46;;;;;;;45.70;37.83;;;28.70;48.60;;;;;;6134366;23;1165441;-64
2022/07/23 00:59:13;;;;;;;49.72;39.45;;;28.70;48.70;;;;;;6182119;23;20027;-66
2022/07/23 01:01:39;;;;;;;50.38;39.45;;;28.70;48.60;;;;;;6181956;23;20051;-66
2022/07/23 01:04:05;;;;;;;46.17;39.42;;;28.70;48.60;;;;;;6181889;23;20020;-65
2022/07/23 01:06:36;;;;;;;46.63;37.92;;;28.70;48.60;;;;;;6184762;23;20108;-65
2022/07/23 01:09:04;;;;;;;44.72;37.08;;;28.60;48.50;;;;;;6184395;23;20009;-65
2022/07/23 01:11:34;;;;;;;51.30;35.78;;;28.60;48.60;;;;;;6184884;23;20001;-64
2022/07/23 01:14:07;;;;;;;37.67;30.65;;;28.60;48.50;;;;;;6184733;23;20012;-65
2022/07/23 01:16:32;;;;;;;33.13;29.38;;;28.60;47.70;;;;;;6185115;23;20008;-65
2022/07/23 01:18:58;;;;;;;39.03;28.17;;;28.50;47.00;;;;;;6185088;23;20005;-65
2022/07/23 01:21:24;;;;;;;35.13;29.75;;;28.50;46.90;;;;;;6184849;23;20004;-65
2022/07/23 01:23:50;;;;;;;38.88;28.50;;;28.50;47.00;;;;;;6184914;23;20005;-65
2022/07/23 01:26:16;;;;;;;43.00;28.35;;;28.40;47.10;;;;;;6185034;23;20035;-65
2022/07/23 01:28:42;;;;;;;37.42;29.85;;;28.40;47.20;;;;;;6184670;23;20522;-65
2022/07/23 01:31:08;;;;;;;38.25;29.45;;;28.40;47.30;;;;;;6185025;23;20005;-65
2022/07/23 01:33:34;;;;;;;37.17;30.58;;;28.40;47.60;;;;;;6185105;23;20016;-65
2022/07/23 01:35:59;;;;;;;35.75;30.92;;;28.30;47.70;;;;;;6184198;23;20448;-64
2022/07/23 01:38:25;;;;;;;38.80;30.75;;;28.30;47.90;;;;;;6184774;23;20005;-64
2022/07/23 01:40:51;;;;;;;37.33;30.05;;;28.40;48.20;;;;;;6184244;23;20099;-65
2022/07/23 01:43:17;;;;;;;38.63;30.90;;;28.30;48.30;;;;;;6184401;23;20048;-64
2022/07/23 01:45:44;;;;;;;36.45;31.00;;;28.30;48.20;;;;;;6184779;23;20332;-65
2022/07/23 01:48:10;;;;;;;33.33;29.60;;;28.30;48.20;;;;;;6185350;23;20009;-64
2022/07/23 01:50:35;;;;;;;35.90;28.63;;;28.20;48.20;;;;;;6184752;23;20005;-66
2022/07/23 01:53:01;;;;;;;38.42;29.60;;;28.20;48.20;;;;;;6184410;23;20087;-63
2022/07/23 01:55:27;;;;;;;32.25;25.77;;;28.20;48.20;;;;;;6184657;23;20004;-65
2022/07/23 01:57:52;;;;;;;33.28;25.67;;;28.20;47.90;;;;;;6184354;23;20028;-64
2022/07/23 02:00:18;;;;;;;26.65;23.02;;;28.10;47.90;;;;;;6185076;23;20016;-64
2022/07/23 02:02:44;;;;;;;27.77;23.38;;;28.10;47.60;;;;;;6184134;23;20060;-64
2022/07/23 02:05:10;;;;;;;23.50;20.02;;;28.10;47.80;;;;;;6185165;23;20447;-64
2022/07/23 02:07:35;;;;;;;28.67;21.10;;;28.00;47.60;;;;;;6184714;23;20328;-64
2022/07/23 02:10:01;;;;;;;27.45;20.23;;;28.00;47.50;;;;;;6184701;23;20000;-64
2022/07/23 02:12:27;;;;;;;22.83;18.25;;;28.00;47.20;;;;;;6184290;23;20040;-62
2022/07/23 02:14:52;;;;;;;22.98;18.17;;;28.00;46.90;;;;;;6183624;23;20027;-64
2022/07/23 02:17:18;;;;;;;22.67;18.00;;;27.90;46.70;;;;;;6184585;23;20001;-64
2022/07/23 02:19:44;;;;;;;22.50;17.83;;;28.00;46.80;;;;;;6184820;23;20009;-63
2022/07/23 02:22:09;;;;;;;22.88;19.08;;;27.90;46.90;;;;;;6184794;23;20004;-63
2022/07/23 02:24:35;;;;;;;27.77;19.25;;;27.90;47.00;;;;;;6184894;23;20397;-64
2022/07/23 02:27:01;;;;;;;23.50;18.23;;;27.90;46.80;;;;;;6184823;23;20008;-66
2022/07/23 02:29:26;;;;;;;18.88;16.15;;;27.90;46.70;;;;;;6185359;23;20001;-66
2022/07/23 02:31:52;;;;;;;20.60;17.00;;;27.90;46.90;;;;;;6186364;23;20039;-65
2022/07/23 02:34:18;;;;;;;21.38;15.55;;;27.90;46.70;;;;;;6186387;23;20013;-66
2022/07/23 02:36:44;;;;;;;23.15;17.52;;;27.80;46.60;;;;;;6186463;23;20080;-65
2022/07/23 02:39:10;;;;;;;20.52;16.48;;;27.80;46.50;;;;;;6186737;23;20009;-65
2022/07/23 02:41:35;;;;;;;22.08;17.05;;;27.90;46.70;;;;;;6186300;23;20001;-64
2022/07/23 02:44:01;;;;;;;20.42;18.33;;;27.90;46.70;;;;;;6186134;23;20005;-65
2022/07/23 02:46:27;;;;;;;24.38;16.23;;;27.90;46.70;;;;;;6186241;23;20005;-65
2022/07/23 02:48:53;;;;;;;21.38;16.63;;;27.80;46.50;;;;;;6186407;23;20009;-65
2022/07/23 02:51:19;;;;;;;18.65;16.70;;;27.80;46.40;;;;;;6186234;23;20071;-65
2022/07/23 02:53:44;;;;;;;24.98;18.30;;;27.80;46.40;;;;;;6186100;23;20464;-66
2022/07/23 02:56:10;;;;;;;28.92;18.63;;;27.80;46.50;;;;;;6186272;23;20404;-66
2022/07/23 02:58:36;;;;;;;28.00;19.20;;;27.80;46.70;;;;;;6184485;23;20137;-66
2022/07/23 03:01:02;;;;;;;26.67;20.02;;;27.70;46.60;;;;;;6184179;23;20460;-66
2022/07/23 03:03:27;;;;;;;21.83;19.40;;;27.70;47.00;;;;;;6185443;23;20080;-66
2022/07/23 03:05:53;;;;;;;26.40;19.48;;;27.60;46.90;;;;;;6186378;23;20025;-65
2022/07/23 03:08:19;;;;;;;26.25;21.48;;;27.60;47.40;;;;;;6186247;23;20001;-66
2022/07/23 03:10:44;;;;;;;27.90;21.30;;;27.50;47.80;;;;;;6186529;23;20009;-65
2022/07/23 03:13:10;;;;;;;32.88;22.05;;;27.50;48.10;;;;;;6185992;23;20016;-66
2022/07/23 03:15:36;;;;;;;25.83;21.73;;;27.40;48.40;;;;;;6183978;23;20143;-65
2022/07/23 03:18:01;;;;;;;24.02;21.50;;;27.40;48.40;;;;;;6185923;23;20032;-65
2022/07/23 03:20:27;;;;;;;28.85;20.15;;;27.40;48.60;;;;;;6186276;23;20009;-65
2022/07/23 03:22:53;;;;;;;28.38;21.95;;;27.30;48.50;;;;;;6186092;23;20009;-64
2022/07/23 03:25:19;;;;;;;28.23;22.15;;;27.30;48.40;;;;;;6186131;23;20075;-66
2022/07/23 03:27:45;;;;;;;28.60;21.90;;;27.30;48.50;;;;;;6186033;23;20015;-66
2022/07/23 03:30:11;;;;;;;30.63;22.55;;;27.30;48.50;;;;;;6186686;23;20005;-65
2022/07/23 03:32:37;;;;;;;28.38;21.75;;;27.30;48.50;;;;;;6185838;23;20009;-65
2022/07/23 03:35:04;;;;;;;32.72;21.23;;;27.20;48.40;;;;;;6185827;23;20128;-64
2022/07/23 03:37:29;;;;;;;28.88;20.13;;;27.30;48.60;;;;;;6185729;23;20001;-65
2022/07/23 03:39:55;;;;;;;33.80;20.08;;;27.20;48.40;;;;;;6185115;23;20498;-65
2022/07/23 03:42:21;;;;;;;26.85;19.00;;;27.20;48.30;;;;;;6185842;23;19997;-65
2022/07/23 03:44:46;;;;;;;26.65;19.30;;;27.20;48.20;;;;;;6185353;23;20036;-64
2022/07/23 03:47:12;;;;;;;22.60;19.90;;;27.10;48.00;;;;;;6185782;23;19997;-63
2022/07/23 03:49:38;;;;;;;27.80;19.55;;;27.10;48.10;;;;;;6159443;23;20016;-65
2022/07/23 03:52:04;;;;;;;23.73;19.73;;;27.10;48.30;;;;;;6185561;23;20074;-64
2022/07/23 03:54:29;;;;;;;23.33;20.20;;;27.00;48.50;;;;;;6185618;23;20075;-64
2022/07/23 03:56:55;;;;;;;35.22;23.23;;;27.00;49.00;;;;;;6185227;23;20013;-65
2022/07/23 03:59:21;;;;;;;28.70;21.50;;;27.00;49.20;;;;;;6184805;23;20079;-64
2022/07/23 04:01:46;;;;;;;31.13;22.42;;;27.00;49.40;;;;;;6185550;23;20012;-64
2022/07/23 04:04:12;;;;;;;32.58;22.58;;;27.00;49.30;;;;;;6185406;23;20001;-65
2022/07/23 04:06:38;;;;;;;36.88;23.00;;;26.90;49.20;;;;;;6185561;23;20017;-64
2022/07/23 04:09:04;;;;;;;33.47;23.05;;;26.90;49.00;;;;;;6185468;23;20016;-65
2022/07/23 04:11:30;;;;;;;36.88;23.70;;;26.90;49.00;;;;;;6185167;23;20009;-64
2022/07/23 04:13:55;;;;;;;37.58;25.23;;;26.90;48.90;;;;;;6185503;23;20080;-64
2022/07/23 04:16:21;;;;;;;32.28;22.38;;;26.80;48.60;;;;;;6186117;23;20047;-64
2022/07/23 04:18:47;;;;;;;29.27;22.70;;;26.80;48.50;;;;;;6184986;23;20188;-64
2022/07/23 04:21:13;;;;;;;41.00;23.45;;;26.80;48.70;;;;;;6184892;23;20076;-64
2022/07/23 04:23:38;;;;;;;41.95;24.48;;;26.80;48.70;;;;;;6184536;23;20001;-64
2022/07/23 04:26:04;;;;;;;34.40;23.67;;;26.80;48.70;;;;;;6185132;23;20004;-65
2022/07/23 04:28:30;;;;;;;30.55;23.80;;;26.70;48.60;;;;;;6185401;23;20387;-65
2022/07/23 04:30:59;;;;;;;34.13;23.13;;;26.70;48.60;;;;;;6184956;23;20001;-64
2022/07/23 04:33:24;;;;;;;28.85;23.48;;;26.70;48.60;;;;;;6185019;23;20047;-64
2022/07/23 04:35:50;;;;;;;36.58;24.33;;;26.70;49.20;;;;;;6185329;23;19997;-64
2022/07/23 04:38:16;;;;;;;29.50;24.02;;;26.60;48.70;;;;;;6185366;23;20024;-64
2022/07/23 04:40:41;;;;;;;27.75;22.63;;;26.70;48.60;;;;;;6185468;23;20051;-64
2022/07/23 04:43:07;;;;;;;26.67;23.80;;;26.60;48.80;;;;;;6185613;23;20013;-64
2022/07/23 04:45:33;;;;;;;28.70;23.48;;;26.60;49.00;;;;;;6185452;23;19997;-63
2022/07/23 04:47:59;;;;;;;33.10;25.65;;;26.70;49.10;;;;;;6185316;23;20012;-64
2022/07/23 04:50:24;;;;;;;29.08;23.80;;;26.80;49.10;;;;;;6185494;23;20068;-64
2022/07/23 04:52:50;;;;;;;29.98;23.58;;;26.70;49.40;;;;;;6185376;23;20013;-64
2022/07/23 04:55:16;;;;;;;34.08;23.02;;;26.80;49.60;;;;;;6185240;23;20032;-64
2022/07/23 04:57:42;;;;;;;28.42;21.70;;;26.80;49.70;;;;;;6183660;23;20017;-64
2022/07/23 05:00:08;;;;;;;25.40;20.40;;;26.90;49.70;;;;;;6184115;23;20016;-65
2022/07/23 05:02:34;;;;;;;38.90;21.23;;;26.90;49.40;;;;;;6183576;23;20005;-64
2022/07/23 05:05:00;;;;;;;40.22;22.55;;;26.90;49.10;;;;;;6183499;23;20446;-65
2022/07/23 05:07:26;;;;;;;29.40;21.27;;;27.00;49.10;;;;;;6184324;23;20001;-65
2022/07/23 05:09:51;;;;;;;32.28;21.77;;;27.00;49.00;;;;;;6184145;23;20119;-64
2022/07/23 05:12:17;;;;;;;34.42;20.50;;;27.10;48.90;;;;;;6184119;23;20039;-65
2022/07/23 05:14:43;;;;;;;36.95;21.65;;;27.10;48.60;;;;;;6184883;23;20433;-65
2022/07/23 05:17:08;;;;;;;50.85;20.80;;;27.10;48.90;;;;;;6183957;23;19997;-65
2022/07/23 05:19:34;;;;;;;40.08;21.60;;;27.10;48.80;;;;;;6183848;23;20443;-65
2022/07/23 05:22:00;;;;;;;71.65;30.98;;;27.10;48.70;;;;;;6183642;23;19997;-65
2022/07/23 05:24:26;;;;;;;37.80;22.40;;;27.00;51.70;;;;;;6184456;23;20334;-66
2022/07/23 05:26:52;;;;;;;34.03;20.52;;;27.10;54.20;;;;;;6183714;23;20005;-66
2022/07/23 05:29:18;;;;;;;35.67;20.73;;;27.10;53.50;;;;;;6184089;23;20005;-65
2022/07/23 05:31:44;;;;;;;26.63;19.02;;;27.10;52.50;;;;;;6184145;23;20012;-66
2022/07/23 05:34:10;;;;;;;42.53;20.33;;;27.20;53.10;;;;;;6183973;23;20060;-65
2022/07/23 05:36:35;;;;;;;30.73;19.27;;;27.20;52.30;;;;;;6184755;23;20000;-66
2022/07/23 05:39:01;;;;;;;25.35;18.95;;;27.20;51.80;;;;;;6185129;23;20177;-65
2022/07/23 05:41:27;;;;;;;24.00;19.70;;;27.20;51.60;;;;;;6185212;23;20330;-65
2022/07/23 05:43:52;;;;;;;24.92;17.70;;;27.30;51.40;;;;;;6185268;23;20001;-65
2022/07/23 05:46:18;;;;;;;21.25;16.27;;;27.30;50.00;;;;;;6184621;23;19993;-65
2022/07/23 05:48:45;;;;;;;22.90;16.05;;;27.30;49.80;;;;;;6184274;23;20009;-65
2022/07/23 05:51:11;;;;;;;19.73;15.45;;;27.40;49.50;;;;;;6184312;23;20009;-67
2022/07/23 05:53:38;;;;;;;17.13;14.18;;;27.50;49.20;;;;;;6184534;23;20451;-68
2022/07/23 05:56:04;;;;;;;18.80;13.25;;;27.50;48.70;;;;;;6185170;23;20436;-67
2022/07/23 05:58:30;;;;;;;19.20;13.30;;;27.60;48.20;;;;;;6185181;23;20020;-67
2022/07/23 06:00:55;;;;;;;17.02;13.32;;;27.70;48.10;;;;;;6184897;23;20009;-67
2022/07/23 06:03:21;;;;;;;18.45;13.48;;;27.70;48.60;;;;;;6186398;23;20005;-67
2022/07/23 06:05:47;;;;;;;18.45;13.00;;;27.70;48.00;;;;;;6186474;23;20005;-67
2022/07/23 06:08:12;;;;;;;15.15;13.02;;;27.80;47.80;;;;;;6187188;23;19997;-67
2022/07/23 06:10:38;;;;;;;19.00;13.23;;;27.90;47.70;;;;;;6187114;23;20333;-67
2022/07/23 06:13:04;;;;;;;15.40;12.50;;;27.90;47.80;;;;;;6186990;23;20009;-67
2022/07/23 06:15:30;;;;;;;15.27;12.88;;;28.00;47.90;;;;;;6187301;23;19997;-67
2022/07/23 06:17:56;;;;;;;20.27;12.95;;;28.00;47.90;;;;;;6186968;23;20012;-67
2022/07/23 06:20:21;;;;;;;20.52;14.05;;;28.10;47.70;;;;;;6187035;23;20005;-67
2022/07/23 06:22:47;;;;;;;18.63;15.05;;;28.10;47.40;;;;;;6187397;23;20059;-67
2022/07/23 06:25:13;;;;;;;17.95;15.02;;;28.20;47.00;;;;;;6187076;23;20060;-67
2022/07/23 06:27:38;;;;;;;19.15;14.82;;;28.20;46.80;;;;;;6186830;23;20005;-68
2022/07/23 06:30:05;;;;;;;21.15;14.23;;;28.30;46.70;;;;;;6186777;23;20008;-68
2022/07/23 06:32:31;;;;;;;16.60;13.88;;;28.40;46.80;;;;;;6186913;23;20016;-67
2022/07/23 06:34:57;;;;;;;36.30;14.00;;;28.40;46.70;;;;;;6187337;23;20009;-67
2022/07/23 06:37:22;;;;;;;15.52;12.85;;;28.50;46.80;;;;;;6186669;23;20332;-67
2022/07/23 06:39:48;;;;;;;14.35;11.93;;;28.50;46.70;;;;;;6187199;23;20091;-68
2022/07/23 06:42:14;;;;;;;13.35;11.93;;;28.60;46.90;;;;;;6186872;23;20355;-67
2022/07/23 06:44:41;;;;;;;22.85;12.00;;;28.60;47.10;;;;;;6186783;23;20002;-67
2022/07/23 06:47:07;;;;;;;19.10;11.57;;;28.70;47.30;;;;;;6186936;23;20005;-67
2022/07/23 06:49:33;;;;;;;15.82;10.75;;;28.70;47.50;;;;;;6186690;23;20440;-67
2022/07/23 06:51:59;;;;;;;19.67;11.45;;;28.70;47.50;;;;;;6187129;23;20069;-67
2022/07/23 06:54:24;;;;;;;16.05;11.63;;;28.80;47.40;;;;;;6186770;23;20351;-67
2022/07/23 06:56:50;;;;;;;15.25;11.07;;;28.90;47.50;;;;;;6186528;23;20020;-67
2022/07/23 06:59:16;;;;;;;17.10;11.80;;;28.90;47.30;;;;;;6186946;23;20375;-68
2022/07/23 07:01:41;;;;;;;17.65;11.57;;;29.00;47.10;;;;;;6186719;23;20356;-67
2022/07/23 07:04:07;;;;;;;13.73;11.93;;;29.10;46.80;;;;;;6186775;23;20005;-67
2022/07/23 07:06:33;;;;;;;14.40;11.07;;;29.10;46.70;;;;;;6186819;23;20132;-67
2022/07/23 07:08:58;;;;;;;19.55;12.23;;;29.10;46.50;;;;;;6187033;23;20005;-67
2022/07/23 07:11:25;;;;;;;17.52;11.27;;;29.20;46.60;;;;;;6186424;23;20001;-67
2022/07/23 07:13:51;;;;;;;17.30;11.98;;;29.30;46.40;;;;;;6186340;23;20040;-68
2022/07/23 07:16:17;;;;;;;22.60;12.20;;;29.30;46.20;;;;;;6186465;23;20336;-67
2022/07/23 07:18:42;;;;;;;18.67;12.70;;;29.40;46.00;;;;;;6186586;23;20017;-68
2022/07/23 07:21:08;;;;;;;14.35;12.23;;;29.40;45.80;;;;;;6186788;23;20012;-67
2022/07/23 07:23:34;;;;;;;15.40;12.27;;;29.50;45.60;;;;;;6186649;23;20001;-67
2022/07/23 07:26:00;;;;;;;14.98;13.05;;;29.50;45.50;;;;;;6186287;23;20008;-67
2022/07/23 07:28:25;;;;;;;15.43;13.77;;;29.60;45.40;;;;;;6186609;23;20012;-68
2022/07/23 07:30:51;;;;;;;15.40;12.45;;;29.60;45.10;;;;;;6186646;23;20017;-67
2022/07/23 07:33:17;;;;;;;18.48;13.35;;;29.70;45.00;;;;;;6186184;23;20096;-67
2022/07/23 07:35:43;;;;;;;18.77;13.93;;;29.70;44.90;;;;;;6186148;23;19998;-67
2022/07/23 07:38:08;;;;;;;17.60;14.80;;;29.80;44.80;;;;;;6186529;23;20333;-67
2022/07/23 07:40:34;;;;;;;21.45;16.30;;;29.90;44.50;;;;;;6186235;23;20081;-67
2022/07/23 07:43:01;;;;;;;24.60;16.58;;;29.90;44.20;;;;;;6186368;23;20044;-67
2022/07/23 07:45:27;;;;;;;19.80;16.25;;;30.00;44.20;;;;;;6186194;23;20040;-68
2022/07/23 07:47:52;;;;;;;18.75;15.63;;;30.00;44.00;;;;;;6186262;23;20005;-67
2022/07/23 07:50:20;;;;;;;19.10;16.27;;;30.00;43.80;;;;;;6185982;23;20017;-67
2022/07/23 07:52:46;;;;;;;20.05;17.35;;;30.10;43.90;;;;;;6186076;23;20092;-68
2022/07/23 07:55:12;;;;;;;19.75;15.90;;;30.10;43.60;;;;;;6186652;23;20017;-67
2022/07/23 07:57:38;;;;;;;26.63;16.48;;;30.20;43.60;;;;;;6185754;23;20028;-68
2022/07/23 08:00:06;;;;;;;17.90;15.93;;;30.30;43.80;;;;;;6185988;23;20005;-67
2022/07/23 08:03:00;;;;;;;22.48;16.63;;;30.30;43.70;;;;;;6186163;23;20057;-67
2022/07/23 08:05:27;;;;;;;25.27;17.52;;;30.40;43.70;;;;;;6186160;23;20001;-68
2022/07/23 08:07:54;;;;;;;23.83;19.17;;;30.50;43.70;;;;;;6185959;23;20007;-67
2022/07/23 08:10:20;;;;;;;25.73;20.15;;;30.60;43.50;;;;;;6185669;23;20070;-67
2022/07/23 08:12:53;;;;;;;23.95;20.90;;;30.60;43.40;;;;;;6186383;23;20048;-67
2022/07/23 08:15:20;;;;;;;28.60;22.55;;;30.60;43.10;;;;;;6186218;23;20013;-67
2022/07/23 08:17:46;;;;;;;31.30;22.17;;;30.70;42.30;;;;;;6185952;23;20001;-67
2022/07/23 08:20:13;;;;;;;30.70;24.35;;;30.80;42.00;;;;;;6185936;23;20001;-67
2022/07/23 08:23:02;;;;;;;35.20;23.90;;;30.80;41.70;;;;;;6185933;23;20012;-67
2022/07/23 08:25:34;;;;;;;37.33;25.67;;;30.90;42.20;;;;;;6185654;23;20004;-67
2022/07/23 08:28:01;;;;;;;40.40;26.65;;;30.90;42.50;;;;;;6186338;23;20140;-67
2022/07/23 08:30:28;;;;;;;34.03;26.48;;;30.90;42.60;;;;;;6185888;23;20053;-67
2022/07/23 08:33:00;;;;;;;26.67;23.88;;;30.90;42.50;;;;;;6185325;23;20005;-68
2022/07/23 08:35:30;;;;;;;;;;;31.00;42.30;;;;;;6185398;23;20101;-68
2022/07/23 08:37:57;;;;;;;23.98;20.25;;;31.00;41.70;;;;;;6185151;23;20362;-67
2022/07/23 08:40:26;;;;;;;25.85;19.90;;;31.00;40.50;;;;;;6184927;23;20008;-67
2022/07/23 08:42:51;;;;;;;24.10;20.73;;;31.10;40.40;;;;;;6185597;23;20025;-70
2022/07/23 08:45:20;;;;;;;22.27;19.88;;;31.10;40.30;;;;;;6185023;23;20127;-70
2022/07/23 08:47:51;;;;;;;21.52;19.23;;;31.20;40.30;;;;;;6185233;23;20009;-67
2022/07/23 08:50:17;;;;;;;24.00;19.45;;;31.30;40.10;;;;;;6185760;23;20072;-69
2022/07/23 08:52:44;;;;;;;25.30;22.23;;;31.40;40.20;;;;;;6184628;23;20075;-68
2022/07/23 08:55:09;;;;;;;30.27;21.38;;;31.40;39.70;;;;;;6183816;23;20012;-69
2022/07/23 08:57:35;;;;;;;27.00;22.02;;;31.40;39.30;;;;;;6184155;23;20013;-70
2022/07/23 09:00:03;;;;;;;28.90;21.05;;;31.50;39.20;;;;;;6183739;23;20031;-69
2022/07/23 09:02:28;;;;;;;24.83;22.33;;;31.50;38.90;;;;;;6184381;23;20470;-67
2022/07/23 09:04:54;;;;;;;32.15;21.73;;;31.60;38.30;;;;;;6184765;23;20096;-68
2022/07/23 09:07:20;;;;;;;22.85;20.52;;;31.70;38.40;;;;;;6184444;23;20009;-67
2022/07/23 09:09:46;;;;;;;23.25;20.60;;;31.70;38.40;;;;;;6183406;23;20412;-67
2022/07/23 09:12:12;;;;;;;27.70;21.48;;;31.90;38.30;;;;;;6184325;23;20001;-67
2022/07/23 09:14:43;;;;;;;28.02;21.83;;;31.90;38.00;;;;;;6183792;23;20336;-66
2022/07/23 09:17:14;;;;;;;49.50;25.00;;;32.10;37.60;;;;;;6185269;23;20436;-69
2022/07/23 09:19:41;;;;;;;28.90;22.95;;;32.20;36.90;;;;;;6184970;23;20008;-67
2022/07/23 09:22:26;;;;;;;34.65;27.17;;;32.20;36.50;;;;;;6185107;23;20005;-67
2022/07/23 09:25:07;;;;;;;38.70;25.50;;;32.40;36.60;;;;;;6184046;23;20395;-67
2022/07/23 09:27:46;;;;;;;36.25;22.90;;;32.50;36.60;;;;;;6183514;23;20044;-67
2022/07/23 09:30:12;;;;;;;23.08;20.20;;;32.60;36.80;;;;;;6184034;23;20012;-67
2022/07/23 09:32:39;;;;;;;29.52;23.33;;;32.60;37.10;;;;;;6183967;23;20324;-67
2022/07/23 09:35:05;;;;;;;26.75;21.25;;;32.70;36.90;;;;;;6183677;23;20017;-66
2022/07/23 09:37:31;;;;;;;24.42;21.83;;;32.80;36.70;;;;;;6186143;23;20016;-67
2022/07/23 09:40:05;;;;;;;25.23;22.20;;;32.70;36.60;;;;;;6184904;23;20399;-67
2022/07/23 09:42:31;;;;;;;29.13;22.30;;;32.80;37.00;;;;;;6187102;23;20007;-66
2022/07/23 09:44:58;;;;;;;28.17;21.52;;;32.80;36.70;;;;;;6186908;23;20080;-69
2022/07/23 09:47:27;;;;;;;20.52;18.15;;;32.80;36.60;;;;;;6187302;23;20001;-69
2022/07/23 09:50:15;;;;;;;26.73;23.35;;;32.90;36.70;;;;;;6186888;23;20428;-67
2022/07/23 09:52:49;;;;;;;38.65;26.90;;;32.90;36.20;;;;;;6187368;23;19997;-67
2022/07/23 09:55:16;;;;;;;34.60;28.48;;;33.00;35.50;;;;;;6186994;23;20151;-67
2022/07/23 09:57:45;;;;;;;38.05;29.25;;;33.00;35.10;;;;;;6186753;23;20425;-67
2022/07/23 10:00:12;;;;;;;40.40;32.25;;;33.10;35.70;;;;;;6160562;23;20341;-65
2022/07/23 10:02:39;;;;;;;66.93;41.58;;;33.20;35.70;;;;;;6185571;23;20009;-66
2022/07/23 10:05:06;;;;;;;33.85;29.15;;;33.20;36.50;;;;;;6185019;23;20432;-65
2022/07/23 10:07:36;;;;;;;28.65;25.15;;;33.30;37.30;;;;;;6186282;23;20008;-66
2022/07/23 10:10:03;;;;;;;31.77;25.77;;;33.40;36.90;;;;;;6187083;23;20008;-65
2022/07/23 10:15:13;;;;;;;35.53;27.80;;;33.60;36.20;;;;;;6186918;23;20015;-66
2022/07/23 10:17:39;;;;;;;37.70;29.83;;;33.70;36.80;;;;;;6186929;23;20009;-68
2022/07/23 10:20:05;;;;;;;34.25;30.52;;;33.70;36.60;;;;;;6186932;23;20051;-68
2022/07/23 10:22:36;;;;;;;37.13;29.52;;;33.80;35.30;;;;;;6186826;23;19997;-69
2022/07/23 10:25:47;;;;;;;54.10;37.40;;;33.80;36.70;;;;;;6186945;23;20009;-67
2022/07/23 10:28:41;;;;;;;36.03;27.20;;;33.90;36.30;;;;;;6182167;23;20399;-68
2022/07/23 10:31:30;;;;;;;30.30;26.02;;;34.00;35.30;;;;;;6187155;23;20009;-66
2022/07/23 10:34:33;;;;;;;34.55;28.85;;;34.10;35.60;;;;;;6160047;23;20336;-66
2022/07/23 10:37:24;;;;;;;36.40;32.58;;;34.10;35.10;;;;;;6187431;23;20035;-65
2022/07/23 10:40:13;;;;;;;39.50;32.85;;;34.20;35.10;;;;;;6186487;23;20012;-66
2022/07/23 10:42:40;;;;;;;34.08;30.40;;;34.30;37.20;;;;;;6172530;23;20068;-65
2022/07/23 10:45:26;;;;;;;35.03;31.27;;;34.30;36.40;;;;;;6185955;23;20428;-67
2022/07/23 10:47:52;;;;;;;34.40;30.67;;;34.40;36.00;;;;;;6169219;23;20391;-66
2022/07/23 10:50:21;;;;;;;37.08;31.50;;;34.40;34.70;;;;;;6185122;23;20428;-69
2022/07/23 10:53:15;;;;;;;36.97;33.05;;;34.50;33.90;;;;;;6186303;23;20325;-68
2022/07/23 10:55:46;;;;;;;35.78;31.63;;;34.60;33.70;;;;;;6183461;23;20309;-65
2022/07/23 10:58:16;;;;;;;35.60;31.77;;;34.60;33.60;;;;;;6186369;23;20024;-67
2022/07/23 11:00:42;;;;;;;37.97;33.95;;;34.70;33.00;;;;;;6186443;23;20009;-68
2022/07/23 11:03:30;;;;;;;38.03;33.70;;;34.70;32.80;;;;;;6186452;23;20047;-68
2022/07/23 11:05:55;;;;;;;38.55;34.42;;;34.80;32.60;;;;;;6186501;23;20005;-65
2022/07/23 11:08:21;;;;;;;38.30;33.13;;;34.80;32.90;;;;;;6186346;23;20433;-69
2022/07/23 11:10:48;;;;;;;38.58;33.65;;;34.90;33.00;;;;;;6186636;23;20005;-65
2022/07/23 11:13:38;;;;;;;36.00;32.17;;;35.00;32.90;;;;;;6186462;23;20017;-67
2022/07/23 11:16:12;;;;;;;37.50;33.35;;;35.00;32.50;;;;;;6186381;23;20035;-67
2022/07/23 11:18:44;;;;;;;39.60;34.03;;;35.10;31.90;;;;;;6186154;23;20450;-71
2022/07/23 11:21:40;;;;;;;40.70;36.35;;;35.10;31.90;;;;;;6186353;23;20424;-69
2022/07/23 11:24:09;;;;;;;42.25;37.95;;;35.10;31.40;;;;;;6186748;23;20013;-67
2022/07/23 11:26:41;;;;;;;38.60;34.83;;;35.20;31.50;;;;;;6186546;23;20016;-68
2022/07/23 11:29:27;;;;;;;38.38;34.28;;;35.20;31.30;;;;;;6185943;23;20012;-68
2022/07/23 11:31:54;;;;;;;36.88;32.97;;;35.30;31.30;;;;;;6186360;23;20036;-67
2022/07/23 11:34:33;;;;;;;33.75;30.13;;;35.30;30.60;;;;;;6186512;23;20017;-69
2022/07/23 11:37:00;;;;;;;28.42;23.08;;;35.40;30.90;;;;;;6186355;23;20001;-67
2022/07/23 11:39:28;;;;;;;24.48;21.92;;;35.40;30.20;;;;;;6186059;23;20005;-67
2022/07/23 11:41:56;;;;;;;26.67;22.92;;;35.30;30.30;;;;;;6186249;23;19997;-67
2022/07/23 11:44:28;;;;;;;22.63;20.35;;;35.40;30.40;;;;;;6186348;23;20087;-69
2022/07/23 11:47:02;;;;;;;20.20;17.90;;;35.40;30.30;;;;;;6185645;23;20005;-67
2022/07/23 11:49:29;;;;;;;18.52;14.50;;;35.40;30.30;;;;;;6182667;23;20335;-67
2022/07/23 11:52:04;;;;;;;20.83;15.30;;;35.40;30.10;;;;;;6182339;23;20028;-67
2022/07/23 11:54:30;;;;;;;13.43;12.13;;;35.50;30.40;;;;;;6184380;23;20072;-70
2022/07/23 11:56:59;;;;;;;12.90;11.55;;;35.50;30.50;;;;;;6185802;23;20017;-67
2022/07/23 11:59:28;;;;;;;12.70;9.65;;;35.50;29.50;;;;;;6185930;23;20009;-67
2022/07/23 12:02:04;;;;;;;18.25;8.07;;;35.50;29.70;;;;;;6185180;23;20428;-66
2022/07/23 12:04:44;;;;;;;15.85;11.88;;;35.60;29.50;;;;;;6186114;23;20366;-67
2022/07/23 12:07:35;;;;;;;13.30;11.90;;;35.60;29.80;;;;;;6185882;23;20005;-67
2022/07/23 12:10:10;;;;;;;11.52;9.70;;;35.70;30.10;;;;;;6184793;23;20065;-67
2022/07/23 12:12:43;;;;;;;11.32;9.73;;;35.70;30.00;;;;;;6185489;23;20312;-67
2022/07/23 12:15:11;;;;;;;12.20;9.60;;;35.70;29.40;;;;;;6185581;23;20005;-67
2022/07/23 12:17:39;;;;;;;13.18;9.38;;;35.80;29.40;;;;;;6185285;23;20005;-67
2022/07/23 12:20:08;;;;;;;14.18;9.07;;;35.80;29.30;;;;;;6185315;23;20009;-67
2022/07/23 12:22:40;;;;;;;11.73;9.23;;;35.90;29.50;;;;;;6185308;23;20001;-67
2022/07/23 12:25:08;;;;;;;12.57;8.93;;;35.90;29.50;;;;;;6185265;23;20009;-67
2022/07/23 12:27:34;;;;;;;13.05;8.38;;;36.00;29.20;;;;;;6185178;23;20012;-67
2022/07/23 12:30:24;;;;;;;10.70;8.98;;;36.00;28.90;;;;;;6185534;23;20001;-67
2022/07/23 12:32:52;;;;;;;15.13;10.18;;;36.00;29.10;;;;;;6184705;23;20056;-67
2022/07/23 12:35:18;;;;;;;13.70;10.27;;;36.10;29.30;;;;;;6185274;23;20001;-68